sensor_id;sensor_type;location;lat;lon;timestamp;P1;durP1;ratioP1;P2;durP2;ratioP2
9860;SDS011;4969;52.304;4.968;2022-12-10T00:01:43;45.77;;;35.73;;
9860;SDS011;4969;52.304;4.968;2022-12-10T00:04:10;45.93;;;36.10;;
9860;SDS011;4969;52.304;4.968;2022-12-10T00:06:38;46.67;;;37.07;;
9860;SDS011;4969;52.304;4.968;2022-12-10T00:09:07;51.37;;;39.77;;
9860;SDS011;4969;52.304;4.968;2022-12-10T00:11:38;48.53;;;39.60;;
9860;SDS011;4969;52.304;4.968;2022-12-10T00:14:05;52.50;;;39.07;;
9860;SDS011;4969;52.304;4.968;2022-12-10T00:16:33;38.30;;;30.93;;
9860;SDS011;4969;52.304;4.968;2022-12-10T00:19:00;52.00;;;40.63;;
9860;SDS011;4969;52.304;4.968;2022-12-10T00:21:28;62.70;;;46.80;;
9860;SDS011;4969;52.304;4.968;2022-12-10T00:23:56;64.10;;;48.47;;
9860;SDS011;4969;52.304;4.968;2022-12-10T00:26:24;72.47;;;53.40;;
9860;SDS011;4969;52.304;4.968;2022-12-10T00:28:53;54.63;;;43.00;;
9860;SDS011;4969;52.304;4.968;2022-12-10T00:31:22;70.00;;;52.47;;
9860;SDS011;4969;52.304;4.968;2022-12-10T00:33:49;76.30;;;56.37;;
9860;SDS011;4969;52.304;4.968;2022-12-10T00:36:17;75.60;;;56.37;;
9860;SDS011;4969;52.304;4.968;2022-12-10T00:38:46;61.03;;;48.20;;
9860;SDS011;4969;52.304;4.968;2022-12-10T00:41:14;51.17;;;40.10;;
9860;SDS011;4969;52.304;4.968;2022-12-10T00:43:41;65.90;;;49.63;;
9860;SDS011;4969;52.304;4.968;2022-12-10T00:46:10;60.10;;;43.13;;
9860;SDS011;4969;52.304;4.968;2022-12-10T00:48:37;54.40;;;34.27;;
9860;SDS011;4969;52.304;4.968;2022-12-10T00:51:05;97.07;;;52.17;;
9860;SDS011;4969;52.304;4.968;2022-12-10T00:53:34;104.73;;;43.87;;
9860;SDS011;4969;52.304;4.968;2022-12-10T00:56:02;100.80;;;57.90;;
9860;SDS011;4969;52.304;4.968;2022-12-10T00:58:30;98.60;;;38.13;;
9860;SDS011;4969;52.304;4.968;2022-12-10T01:01:06;112.50;;;49.93;;
9860;SDS011;4969;52.304;4.968;2022-12-10T01:03:35;78.33;;;45.03;;
9860;SDS011;4969;52.304;4.968;2022-12-10T01:06:12;89.27;;;51.67;;
9860;SDS011;4969;52.304;4.968;2022-12-10T01:08:40;106.70;;;37.00;;
9860;SDS011;4969;52.304;4.968;2022-12-10T01:11:07;82.53;;;33.07;;
9860;SDS011;4969;52.304;4.968;2022-12-10T01:13:34;123.73;;;51.00;;
9860;SDS011;4969;52.304;4.968;2022-12-10T01:16:01;113.03;;;32.73;;
9860;SDS011;4969;52.304;4.968;2022-12-10T01:18:28;94.13;;;27.37;;
9860;SDS011;4969;52.304;4.968;2022-12-10T01:20:57;91.63;;;42.63;;
9860;SDS011;4969;52.304;4.968;2022-12-10T01:23:26;94.87;;;47.03;;
9860;SDS011;4969;52.304;4.968;2022-12-10T01:25:53;94.70;;;29.90;;
9860;SDS011;4969;52.304;4.968;2022-12-10T01:28:20;89.33;;;33.37;;
9860;SDS011;4969;52.304;4.968;2022-12-10T01:30:46;80.83;;;42.03;;
9860;SDS011;4969;52.304;4.968;2022-12-10T01:33:13;79.97;;;36.90;;
9860;SDS011;4969;52.304;4.968;2022-12-10T01:35:40;97.37;;;48.93;;
9860;SDS011;4969;52.304;4.968;2022-12-10T01:38:08;96.50;;;48.83;;
9860;SDS011;4969;52.304;4.968;2022-12-10T01:40:36;91.90;;;37.67;;
9860;SDS011;4969;52.304;4.968;2022-12-10T01:43:03;82.10;;;39.57;;
9860;SDS011;4969;52.304;4.968;2022-12-10T01:45:30;81.70;;;36.03;;
9860;SDS011;4969;52.304;4.968;2022-12-10T01:47:57;82.23;;;43.83;;
9860;SDS011;4969;52.304;4.968;2022-12-10T01:50:23;113.07;;;45.83;;
9860;SDS011;4969;52.304;4.968;2022-12-10T01:52:50;98.07;;;36.67;;
9860;SDS011;4969;52.304;4.968;2022-12-10T01:55:41;99.77;;;29.07;;
9860;SDS011;4969;52.304;4.968;2022-12-10T01:58:11;98.40;;;44.53;;
9860;SDS011;4969;52.304;4.968;2022-12-10T02:00:41;97.37;;;36.80;;
9860;SDS011;4969;52.304;4.968;2022-12-10T02:03:27;82.00;;;37.23;;
9860;SDS011;4969;52.304;4.968;2022-12-10T02:06:08;76.30;;;41.47;;
9860;SDS011;4969;52.304;4.968;2022-12-10T02:08:44;64.00;;;39.33;;
9860;SDS011;4969;52.304;4.968;2022-12-10T02:11:22;56.67;;;35.00;;
9860;SDS011;4969;52.304;4.968;2022-12-10T02:13:56;60.33;;;40.37;;
9860;SDS011;4969;52.304;4.968;2022-12-10T02:16:30;49.80;;;36.17;;
9860;SDS011;4969;52.304;4.968;2022-12-10T02:19:01;59.13;;;41.60;;
9860;SDS011;4969;52.304;4.968;2022-12-10T02:21:36;51.40;;;38.90;;
9860;SDS011;4969;52.304;4.968;2022-12-10T02:24:07;54.57;;;40.27;;
9860;SDS011;4969;52.304;4.968;2022-12-10T02:26:40;52.53;;;39.30;;
9860;SDS011;4969;52.304;4.968;2022-12-10T02:29:13;50.13;;;36.83;;
9860;SDS011;4969;52.304;4.968;2022-12-10T02:31:42;52.60;;;39.43;;
9860;SDS011;4969;52.304;4.968;2022-12-10T02:34:12;52.07;;;37.33;;
9860;SDS011;4969;52.304;4.968;2022-12-10T02:36:41;53.13;;;39.33;;
9860;SDS011;4969;52.304;4.968;2022-12-10T02:39:11;50.17;;;37.47;;
9860;SDS011;4969;52.304;4.968;2022-12-10T02:41:42;50.00;;;37.47;;
9860;SDS011;4969;52.304;4.968;2022-12-10T02:44:14;48.70;;;37.43;;
9860;SDS011;4969;52.304;4.968;2022-12-10T02:46:43;47.97;;;37.53;;
9860;SDS011;4969;52.304;4.968;2022-12-10T02:49:12;46.40;;;35.43;;
9860;SDS011;4969;52.304;4.968;2022-12-10T02:51:41;49.70;;;35.47;;
9860;SDS011;4969;52.304;4.968;2022-12-10T02:57:09;53.73;;;37.20;;
9860;SDS011;4969;52.304;4.968;2022-12-10T02:59:46;53.50;;;36.43;;
9860;SDS011;4969;52.304;4.968;2022-12-10T03:02:19;50.50;;;37.57;;
9860;SDS011;4969;52.304;4.968;2022-12-10T03:04:51;48.33;;;36.57;;
9860;SDS011;4969;52.304;4.968;2022-12-10T03:07:23;47.73;;;35.97;;
9860;SDS011;4969;52.304;4.968;2022-12-10T03:09:55;51.53;;;36.73;;
9860;SDS011;4969;52.304;4.968;2022-12-10T03:12:29;48.80;;;35.90;;
9860;SDS011;4969;52.304;4.968;2022-12-10T03:15:00;50.17;;;35.43;;
9860;SDS011;4969;52.304;4.968;2022-12-10T03:17:31;66.03;;;35.73;;
9860;SDS011;4969;52.304;4.968;2022-12-10T03:19:58;103.87;;;37.73;;
9860;SDS011;4969;52.304;4.968;2022-12-10T03:22:26;71.70;;;37.63;;
9860;SDS011;4969;52.304;4.968;2022-12-10T03:24:53;64.57;;;35.00;;
9860;SDS011;4969;52.304;4.968;2022-12-10T03:27:20;67.37;;;35.03;;
9860;SDS011;4969;52.304;4.968;2022-12-10T03:29:49;52.83;;;34.83;;
9860;SDS011;4969;52.304;4.968;2022-12-10T03:32:19;51.97;;;36.37;;
9860;SDS011;4969;52.304;4.968;2022-12-10T03:34:48;50.50;;;35.67;;
9860;SDS011;4969;52.304;4.968;2022-12-10T03:37:17;50.40;;;35.13;;
9860;SDS011;4969;52.304;4.968;2022-12-10T03:39:44;51.87;;;36.93;;
9860;SDS011;4969;52.304;4.968;2022-12-10T03:42:12;57.23;;;38.20;;
9860;SDS011;4969;52.304;4.968;2022-12-10T03:44:38;65.33;;;35.50;;
9860;SDS011;4969;52.304;4.968;2022-12-10T03:47:06;62.50;;;35.70;;
9860;SDS011;4969;52.304;4.968;2022-12-10T03:49:38;55.97;;;38.13;;
9860;SDS011;4969;52.304;4.968;2022-12-10T03:52:05;57.67;;;37.57;;
9860;SDS011;4969;52.304;4.968;2022-12-10T03:54:31;63.97;;;38.03;;
9860;SDS011;4969;52.304;4.968;2022-12-10T03:56:58;69.83;;;37.20;;
9860;SDS011;4969;52.304;4.968;2022-12-10T03:59:24;55.20;;;39.83;;
9860;SDS011;4969;52.304;4.968;2022-12-10T04:01:51;81.63;;;39.27;;
9860;SDS011;4969;52.304;4.968;2022-12-10T04:04:18;100.03;;;39.17;;
9860;SDS011;4969;52.304;4.968;2022-12-10T04:06:46;71.87;;;40.17;;
9860;SDS011;4969;52.304;4.968;2022-12-10T04:09:13;67.60;;;41.70;;
9860;SDS011;4969;52.304;4.968;2022-12-10T04:11:41;55.07;;;38.53;;
9860;SDS011;4969;52.304;4.968;2022-12-10T04:14:08;115.73;;;35.90;;
9860;SDS011;4969;52.304;4.968;2022-12-10T04:16:53;104.00;;;38.00;;
9860;SDS011;4969;52.304;4.968;2022-12-10T04:19:19;76.23;;;37.17;;
9860;SDS011;4969;52.304;4.968;2022-12-10T04:21:47;158.77;;;36.13;;
9860;SDS011;4969;52.304;4.968;2022-12-10T04:24:33;325.87;;;36.47;;
9860;SDS011;4969;52.304;4.968;2022-12-10T04:27:18;268.70;;;37.13;;
9860;SDS011;4969;52.304;4.968;2022-12-10T04:29:47;305.53;;;40.30;;
9860;SDS011;4969;52.304;4.968;2022-12-10T04:32:14;121.27;;;34.20;;
9860;SDS011;4969;52.304;4.968;2022-12-10T04:34:41;101.83;;;36.73;;
9860;SDS011;4969;52.304;4.968;2022-12-10T04:37:09;182.87;;;36.07;;
9860;SDS011;4969;52.304;4.968;2022-12-10T04:39:37;138.80;;;35.60;;
9860;SDS011;4969;52.304;4.968;2022-12-10T04:42:04;161.67;;;35.73;;
9860;SDS011;4969;52.304;4.968;2022-12-10T04:44:32;206.77;;;33.80;;
9860;SDS011;4969;52.304;4.968;2022-12-10T04:46:59;195.00;;;32.03;;
9860;SDS011;4969;52.304;4.968;2022-12-10T04:49:26;163.67;;;31.23;;
9860;SDS011;4969;52.304;4.968;2022-12-10T04:51:53;90.23;;;34.13;;
9860;SDS011;4969;52.304;4.968;2022-12-10T04:54:21;132.63;;;31.73;;
9860;SDS011;4969;52.304;4.968;2022-12-10T04:56:48;143.87;;;31.20;;
9860;SDS011;4969;52.304;4.968;2022-12-10T04:59:15;131.53;;;32.40;;
9860;SDS011;4969;52.304;4.968;2022-12-10T05:01:42;147.47;;;31.13;;
9860;SDS011;4969;52.304;4.968;2022-12-10T05:04:10;141.07;;;33.77;;
9860;SDS011;4969;52.304;4.968;2022-12-10T05:06:38;114.07;;;31.47;;
9860;SDS011;4969;52.304;4.968;2022-12-10T05:09:05;162.50;;;30.63;;
9860;SDS011;4969;52.304;4.968;2022-12-10T05:11:33;126.07;;;30.67;;
9860;SDS011;4969;52.304;4.968;2022-12-10T05:14:00;90.17;;;27.80;;
9860;SDS011;4969;52.304;4.968;2022-12-10T05:16:28;85.30;;;28.20;;
9860;SDS011;4969;52.304;4.968;2022-12-10T05:18:56;91.77;;;28.97;;
9860;SDS011;4969;52.304;4.968;2022-12-10T05:21:24;97.20;;;27.73;;
9860;SDS011;4969;52.304;4.968;2022-12-10T05:24:13;79.70;;;29.43;;
9860;SDS011;4969;52.304;4.968;2022-12-10T05:26:40;110.03;;;29.63;;
9860;SDS011;4969;52.304;4.968;2022-12-10T05:29:07;99.73;;;27.90;;
9860;SDS011;4969;52.304;4.968;2022-12-10T05:31:34;77.27;;;26.50;;
9860;SDS011;4969;52.304;4.968;2022-12-10T05:34:01;74.13;;;26.43;;
9860;SDS011;4969;52.304;4.968;2022-12-10T05:36:28;89.03;;;27.00;;
9860;SDS011;4969;52.304;4.968;2022-12-10T05:38:57;106.13;;;24.77;;
9860;SDS011;4969;52.304;4.968;2022-12-10T05:41:25;102.73;;;26.43;;
9860;SDS011;4969;52.304;4.968;2022-12-10T05:43:54;79.63;;;25.63;;
9860;SDS011;4969;52.304;4.968;2022-12-10T05:46:24;76.40;;;26.53;;
9860;SDS011;4969;52.304;4.968;2022-12-10T05:48:52;135.90;;;26.53;;
9860;SDS011;4969;52.304;4.968;2022-12-10T05:51:20;92.93;;;21.83;;
9860;SDS011;4969;52.304;4.968;2022-12-10T05:53:48;99.23;;;21.53;;
9860;SDS011;4969;52.304;4.968;2022-12-10T05:56:19;93.50;;;22.80;;
9860;SDS011;4969;52.304;4.968;2022-12-10T05:58:47;90.87;;;22.27;;
9860;SDS011;4969;52.304;4.968;2022-12-10T06:01:17;91.23;;;24.70;;
9860;SDS011;4969;52.304;4.968;2022-12-10T06:03:45;55.53;;;23.43;;
9860;SDS011;4969;52.304;4.968;2022-12-10T06:06:12;93.87;;;23.50;;
9860;SDS011;4969;52.304;4.968;2022-12-10T06:08:39;59.77;;;22.97;;
9860;SDS011;4969;52.304;4.968;2022-12-10T06:11:07;99.80;;;26.50;;
9860;SDS011;4969;52.304;4.968;2022-12-10T06:13:35;84.13;;;24.40;;
9860;SDS011;4969;52.304;4.968;2022-12-10T06:16:03;72.50;;;25.03;;
9860;SDS011;4969;52.304;4.968;2022-12-10T06:18:32;79.73;;;25.17;;
9860;SDS011;4969;52.304;4.968;2022-12-10T06:20:58;59.97;;;23.60;;
9860;SDS011;4969;52.304;4.968;2022-12-10T06:23:25;121.57;;;26.10;;
9860;SDS011;4969;52.304;4.968;2022-12-10T06:25:52;103.70;;;24.97;;
9860;SDS011;4969;52.304;4.968;2022-12-10T06:28:18;85.77;;;21.13;;
9860;SDS011;4969;52.304;4.968;2022-12-10T06:30:45;149.03;;;25.00;;
9860;SDS011;4969;52.304;4.968;2022-12-10T06:33:11;85.77;;;22.50;;
9860;SDS011;4969;52.304;4.968;2022-12-10T06:35:39;95.77;;;22.90;;
9860;SDS011;4969;52.304;4.968;2022-12-10T06:38:06;85.67;;;20.93;;
9860;SDS011;4969;52.304;4.968;2022-12-10T06:40:32;91.93;;;21.53;;
9860;SDS011;4969;52.304;4.968;2022-12-10T06:43:44;111.17;;;22.03;;
9860;SDS011;4969;52.304;4.968;2022-12-10T06:46:16;67.53;;;20.37;;
9860;SDS011;4969;52.304;4.968;2022-12-10T06:48:47;66.77;;;20.47;;
9860;SDS011;4969;52.304;4.968;2022-12-10T06:51:18;80.10;;;19.67;;
9860;SDS011;4969;52.304;4.968;2022-12-10T06:53:46;64.03;;;19.70;;
9860;SDS011;4969;52.304;4.968;2022-12-10T06:56:18;65.50;;;22.43;;
9860;SDS011;4969;52.304;4.968;2022-12-10T06:58:47;74.50;;;20.13;;
9860;SDS011;4969;52.304;4.968;2022-12-10T07:01:16;75.37;;;21.03;;
9860;SDS011;4969;52.304;4.968;2022-12-10T07:03:47;47.47;;;20.90;;
9860;SDS011;4969;52.304;4.968;2022-12-10T07:09:38;60.00;;;20.80;;
9860;SDS011;4969;52.304;4.968;2022-12-10T07:12:06;60.33;;;18.73;;
9860;SDS011;4969;52.304;4.968;2022-12-10T07:17:20;50.47;;;19.03;;
9860;SDS011;4969;52.304;4.968;2022-12-10T07:19:47;55.30;;;19.43;;
9860;SDS011;4969;52.304;4.968;2022-12-10T07:22:16;63.37;;;21.87;;
9860;SDS011;4969;52.304;4.968;2022-12-10T07:24:44;65.63;;;22.47;;
9860;SDS011;4969;52.304;4.968;2022-12-10T07:27:20;36.80;;;19.00;;
9860;SDS011;4969;52.304;4.968;2022-12-10T07:30:24;57.73;;;20.27;;
9860;SDS011;4969;52.304;4.968;2022-12-10T07:33:20;56.33;;;20.33;;
9860;SDS011;4969;52.304;4.968;2022-12-10T07:35:47;38.03;;;18.70;;
9860;SDS011;4969;52.304;4.968;2022-12-10T07:38:13;51.53;;;18.50;;
9860;SDS011;4969;52.304;4.968;2022-12-10T07:40:43;42.60;;;18.93;;
9860;SDS011;4969;52.304;4.968;2022-12-10T07:43:10;51.40;;;21.40;;
9860;SDS011;4969;52.304;4.968;2022-12-10T07:45:36;67.97;;;20.87;;
9860;SDS011;4969;52.304;4.968;2022-12-10T07:48:03;71.33;;;21.63;;
9860;SDS011;4969;52.304;4.968;2022-12-10T07:50:30;44.67;;;22.33;;
9860;SDS011;4969;52.304;4.968;2022-12-10T07:52:57;82.27;;;23.43;;
9860;SDS011;4969;52.304;4.968;2022-12-10T07:55:24;72.17;;;22.83;;
9860;SDS011;4969;52.304;4.968;2022-12-10T07:57:52;37.20;;;17.37;;
9860;SDS011;4969;52.304;4.968;2022-12-10T08:00:18;119.93;;;21.87;;
9860;SDS011;4969;52.304;4.968;2022-12-10T08:02:45;89.60;;;21.00;;
9860;SDS011;4969;52.304;4.968;2022-12-10T08:05:11;73.90;;;18.47;;
9860;SDS011;4969;52.304;4.968;2022-12-10T08:07:38;103.33;;;20.97;;
9860;SDS011;4969;52.304;4.968;2022-12-10T08:10:06;60.60;;;21.53;;
9860;SDS011;4969;52.304;4.968;2022-12-10T08:12:33;94.40;;;23.30;;
9860;SDS011;4969;52.304;4.968;2022-12-10T08:15:01;72.30;;;22.57;;
9860;SDS011;4969;52.304;4.968;2022-12-10T08:17:29;56.70;;;19.30;;
9860;SDS011;4969;52.304;4.968;2022-12-10T08:19:55;75.47;;;21.43;;
9860;SDS011;4969;52.304;4.968;2022-12-10T08:22:22;67.30;;;20.90;;
9860;SDS011;4969;52.304;4.968;2022-12-10T08:24:48;53.90;;;18.33;;
9860;SDS011;4969;52.304;4.968;2022-12-10T08:27:15;48.77;;;18.50;;
9860;SDS011;4969;52.304;4.968;2022-12-10T08:29:42;40.53;;;18.47;;
9860;SDS011;4969;52.304;4.968;2022-12-10T08:32:09;40.97;;;17.37;;
9860;SDS011;4969;52.304;4.968;2022-12-10T08:34:36;41.60;;;20.37;;
9860;SDS011;4969;52.304;4.968;2022-12-10T08:37:03;51.67;;;21.37;;
9860;SDS011;4969;52.304;4.968;2022-12-10T08:39:30;39.27;;;22.40;;
9860;SDS011;4969;52.304;4.968;2022-12-10T08:41:56;52.00;;;21.00;;
9860;SDS011;4969;52.304;4.968;2022-12-10T08:44:23;44.23;;;19.07;;
9860;SDS011;4969;52.304;4.968;2022-12-10T08:46:49;30.37;;;16.50;;
9860;SDS011;4969;52.304;4.968;2022-12-10T08:49:17;61.37;;;21.07;;
9860;SDS011;4969;52.304;4.968;2022-12-10T08:51:44;45.00;;;18.23;;
9860;SDS011;4969;52.304;4.968;2022-12-10T08:54:11;40.03;;;18.97;;
9860;SDS011;4969;52.304;4.968;2022-12-10T08:56:38;32.17;;;19.07;;
9860;SDS011;4969;52.304;4.968;2022-12-10T08:59:05;37.50;;;19.70;;
9860;SDS011;4969;52.304;4.968;2022-12-10T09:01:32;48.17;;;19.87;;
9860;SDS011;4969;52.304;4.968;2022-12-10T09:03:59;35.47;;;19.47;;
9860;SDS011;4969;52.304;4.968;2022-12-10T09:06:28;37.10;;;19.83;;
9860;SDS011;4969;52.304;4.968;2022-12-10T09:08:55;49.23;;;21.07;;
9860;SDS011;4969;52.304;4.968;2022-12-10T09:11:23;40.63;;;19.47;;
9860;SDS011;4969;52.304;4.968;2022-12-10T09:13:51;41.87;;;20.10;;
9860;SDS011;4969;52.304;4.968;2022-12-10T09:16:18;63.83;;;18.77;;
9860;SDS011;4969;52.304;4.968;2022-12-10T09:18:45;79.73;;;19.67;;
9860;SDS011;4969;52.304;4.968;2022-12-10T09:21:12;70.53;;;16.03;;
9860;SDS011;4969;52.304;4.968;2022-12-10T09:23:42;62.93;;;17.23;;
9860;SDS011;4969;52.304;4.968;2022-12-10T09:26:10;47.27;;;16.47;;
9860;SDS011;4969;52.304;4.968;2022-12-10T09:28:39;61.30;;;19.23;;
9860;SDS011;4969;52.304;4.968;2022-12-10T09:31:06;50.03;;;18.73;;
9860;SDS011;4969;52.304;4.968;2022-12-10T09:33:34;41.57;;;18.67;;
9860;SDS011;4969;52.304;4.968;2022-12-10T09:36:01;39.17;;;20.60;;
9860;SDS011;4969;52.304;4.968;2022-12-10T09:38:29;39.20;;;18.97;;
9860;SDS011;4969;52.304;4.968;2022-12-10T09:40:59;44.97;;;20.67;;
9860;SDS011;4969;52.304;4.968;2022-12-10T09:43:31;31.67;;;16.33;;
9860;SDS011;4969;52.304;4.968;2022-12-10T09:46:06;42.00;;;15.43;;
9860;SDS011;4969;52.304;4.968;2022-12-10T09:48:41;64.33;;;17.03;;
9860;SDS011;4969;52.304;4.968;2022-12-10T09:51:18;41.03;;;12.90;;
9860;SDS011;4969;52.304;4.968;2022-12-10T09:53:47;37.60;;;17.93;;
9860;SDS011;4969;52.304;4.968;2022-12-10T09:56:25;104.33;;;19.23;;
9860;SDS011;4969;52.304;4.968;2022-12-10T09:58:54;39.47;;;17.47;;
9860;SDS011;4969;52.304;4.968;2022-12-10T10:01:23;40.37;;;17.77;;
9860;SDS011;4969;52.304;4.968;2022-12-10T10:03:53;43.00;;;15.50;;
9860;SDS011;4969;52.304;4.968;2022-12-10T10:06:19;39.10;;;16.47;;
9860;SDS011;4969;52.304;4.968;2022-12-10T10:08:48;44.90;;;15.80;;
9860;SDS011;4969;52.304;4.968;2022-12-10T10:11:18;32.47;;;17.00;;
9860;SDS011;4969;52.304;4.968;2022-12-10T10:13:49;35.30;;;15.87;;
9860;SDS011;4969;52.304;4.968;2022-12-10T10:16:20;37.23;;;16.63;;
9860;SDS011;4969;52.304;4.968;2022-12-10T10:18:52;34.10;;;17.77;;
9860;SDS011;4969;52.304;4.968;2022-12-10T10:21:22;48.40;;;18.10;;
9860;SDS011;4969;52.304;4.968;2022-12-10T10:23:51;34.87;;;18.17;;
9860;SDS011;4969;52.304;4.968;2022-12-10T10:26:18;37.80;;;15.77;;
9860;SDS011;4969;52.304;4.968;2022-12-10T10:28:45;22.03;;;14.87;;
9860;SDS011;4969;52.304;4.968;2022-12-10T10:31:23;41.47;;;18.57;;
9860;SDS011;4969;52.304;4.968;2022-12-10T10:33:53;52.60;;;19.67;;
9860;SDS011;4969;52.304;4.968;2022-12-10T10:36:24;52.00;;;17.73;;
9860;SDS011;4969;52.304;4.968;2022-12-10T10:38:53;31.20;;;16.77;;
9860;SDS011;4969;52.304;4.968;2022-12-10T10:41:19;41.50;;;19.27;;
9860;SDS011;4969;52.304;4.968;2022-12-10T10:43:46;60.73;;;21.00;;
9860;SDS011;4969;52.304;4.968;2022-12-10T10:46:20;70.70;;;20.20;;
9860;SDS011;4969;52.304;4.968;2022-12-10T10:48:50;53.93;;;19.60;;
9860;SDS011;4969;52.304;4.968;2022-12-10T10:51:18;43.30;;;20.20;;
9860;SDS011;4969;52.304;4.968;2022-12-10T10:53:48;40.70;;;20.37;;
9860;SDS011;4969;52.304;4.968;2022-12-10T10:56:17;38.07;;;21.60;;
9860;SDS011;4969;52.304;4.968;2022-12-10T10:58:56;39.80;;;16.90;;
9860;SDS011;4969;52.304;4.968;2022-12-10T11:01:42;27.03;;;18.30;;
9860;SDS011;4969;52.304;4.968;2022-12-10T11:04:10;44.13;;;21.23;;
9860;SDS011;4969;52.304;4.968;2022-12-10T11:06:39;36.30;;;19.63;;
9860;SDS011;4969;52.304;4.968;2022-12-10T11:09:06;58.43;;;22.10;;
9860;SDS011;4969;52.304;4.968;2022-12-10T11:11:33;35.00;;;16.53;;
9860;SDS011;4969;52.304;4.968;2022-12-10T11:14:15;51.50;;;22.53;;
9860;SDS011;4969;52.304;4.968;2022-12-10T11:16:50;46.10;;;19.20;;
9860;SDS011;4969;52.304;4.968;2022-12-10T11:19:26;43.20;;;17.23;;
9860;SDS011;4969;52.304;4.968;2022-12-10T11:21:52;57.07;;;21.90;;
9860;SDS011;4969;52.304;4.968;2022-12-10T11:24:19;41.97;;;19.63;;
9860;SDS011;4969;52.304;4.968;2022-12-10T11:26:49;29.73;;;18.87;;
9860;SDS011;4969;52.304;4.968;2022-12-10T11:29:26;31.20;;;17.77;;
9860;SDS011;4969;52.304;4.968;2022-12-10T11:32:23;32.23;;;22.60;;
9860;SDS011;4969;52.304;4.968;2022-12-10T11:35:07;38.17;;;20.63;;
9860;SDS011;4969;52.304;4.968;2022-12-10T11:37:39;39.80;;;19.63;;
9860;SDS011;4969;52.304;4.968;2022-12-10T11:40:28;28.80;;;15.97;;
9860;SDS011;4969;52.304;4.968;2022-12-10T11:43:02;33.30;;;18.17;;
9860;SDS011;4969;52.304;4.968;2022-12-10T11:45:41;40.07;;;20.80;;
9860;SDS011;4969;52.304;4.968;2022-12-10T11:48:18;48.80;;;20.63;;
9860;SDS011;4969;52.304;4.968;2022-12-10T11:50:57;40.37;;;20.93;;
9860;SDS011;4969;52.304;4.968;2022-12-10T11:53:38;44.30;;;23.40;;
9860;SDS011;4969;52.304;4.968;2022-12-10T11:56:18;44.73;;;22.10;;
9860;SDS011;4969;52.304;4.968;2022-12-10T11:59:02;30.53;;;20.03;;
9860;SDS011;4969;52.304;4.968;2022-12-10T12:01:44;42.13;;;19.73;;
9860;SDS011;4969;52.304;4.968;2022-12-10T12:04:22;29.00;;;17.43;;
9860;SDS011;4969;52.304;4.968;2022-12-10T12:10:01;33.30;;;21.93;;
9860;SDS011;4969;52.304;4.968;2022-12-10T12:12:48;43.03;;;20.17;;
9860;SDS011;4969;52.304;4.968;2022-12-10T12:15:22;40.97;;;24.40;;
9860;SDS011;4969;52.304;4.968;2022-12-10T12:17:55;45.77;;;24.03;;
9860;SDS011;4969;52.304;4.968;2022-12-10T12:20:28;47.33;;;25.33;;
9860;SDS011;4969;52.304;4.968;2022-12-10T12:22:58;48.03;;;25.80;;
9860;SDS011;4969;52.304;4.968;2022-12-10T12:25:29;48.23;;;24.03;;
9860;SDS011;4969;52.304;4.968;2022-12-10T12:28:03;58.53;;;26.17;;
9860;SDS011;4969;52.304;4.968;2022-12-10T12:30:36;49.07;;;25.27;;
9860;SDS011;4969;52.304;4.968;2022-12-10T12:33:05;45.67;;;22.60;;
9860;SDS011;4969;52.304;4.968;2022-12-10T12:35:40;49.20;;;25.00;;
9860;SDS011;4969;52.304;4.968;2022-12-10T12:38:21;44.93;;;26.53;;
9860;SDS011;4969;52.304;4.968;2022-12-10T12:40:55;46.97;;;24.17;;
9860;SDS011;4969;52.304;4.968;2022-12-10T12:43:28;52.10;;;29.13;;
9860;SDS011;4969;52.304;4.968;2022-12-10T12:46:11;50.47;;;26.00;;
9860;SDS011;4969;52.304;4.968;2022-12-10T12:48:44;56.97;;;29.30;;
9860;SDS011;4969;52.304;4.968;2022-12-10T12:51:19;45.53;;;27.43;;
9860;SDS011;4969;52.304;4.968;2022-12-10T12:53:49;51.43;;;27.97;;
9860;SDS011;4969;52.304;4.968;2022-12-10T12:56:18;55.93;;;26.90;;
9860;SDS011;4969;52.304;4.968;2022-12-10T12:58:57;57.40;;;28.87;;
9860;SDS011;4969;52.304;4.968;2022-12-10T13:01:32;51.93;;;27.30;;
9860;SDS011;4969;52.304;4.968;2022-12-10T13:04:01;54.57;;;27.20;;
9860;SDS011;4969;52.304;4.968;2022-12-10T13:06:31;64.90;;;28.37;;
9860;SDS011;4969;52.304;4.968;2022-12-10T13:11:43;52.20;;;29.13;;
9860;SDS011;4969;52.304;4.968;2022-12-10T13:14:16;63.27;;;28.60;;
9860;SDS011;4969;52.304;4.968;2022-12-10T13:17:01;57.60;;;30.47;;
9860;SDS011;4969;52.304;4.968;2022-12-10T13:19:50;53.93;;;27.37;;
9860;SDS011;4969;52.304;4.968;2022-12-10T13:25:22;71.53;;;28.07;;
9860;SDS011;4969;52.304;4.968;2022-12-10T13:28:15;70.00;;;28.00;;
9860;SDS011;4969;52.304;4.968;2022-12-10T13:31:05;68.57;;;26.17;;
9860;SDS011;4969;52.304;4.968;2022-12-10T13:33:45;56.50;;;25.80;;
9860;SDS011;4969;52.304;4.968;2022-12-10T13:36:21;73.67;;;27.20;;
9860;SDS011;4969;52.304;4.968;2022-12-10T13:38:57;53.37;;;26.67;;
9860;SDS011;4969;52.304;4.968;2022-12-10T13:41:40;63.87;;;24.87;;
9860;SDS011;4969;52.304;4.968;2022-12-10T13:44:31;50.83;;;25.60;;
9860;SDS011;4969;52.304;4.968;2022-12-10T13:47:03;70.97;;;25.77;;
9860;SDS011;4969;52.304;4.968;2022-12-10T13:49:47;66.67;;;25.40;;
9860;SDS011;4969;52.304;4.968;2022-12-10T13:52:18;67.60;;;29.20;;
9860;SDS011;4969;52.304;4.968;2022-12-10T13:57:52;74.43;;;27.57;;
9860;SDS011;4969;52.304;4.968;2022-12-10T14:00:29;74.40;;;29.03;;
9860;SDS011;4969;52.304;4.968;2022-12-10T14:03:08;71.70;;;29.97;;
9860;SDS011;4969;52.304;4.968;2022-12-10T14:05:50;69.40;;;29.70;;
9860;SDS011;4969;52.304;4.968;2022-12-10T14:08:31;57.77;;;25.80;;
9860;SDS011;4969;52.304;4.968;2022-12-10T14:11:01;58.43;;;28.97;;
9860;SDS011;4969;52.304;4.968;2022-12-10T14:13:34;99.07;;;28.90;;
9860;SDS011;4969;52.304;4.968;2022-12-10T14:16:04;85.53;;;29.23;;
9860;SDS011;4969;52.304;4.968;2022-12-10T14:18:35;105.50;;;31.40;;
9860;SDS011;4969;52.304;4.968;2022-12-10T14:21:04;63.07;;;26.33;;
9860;SDS011;4969;52.304;4.968;2022-12-10T14:23:33;90.67;;;33.00;;
9860;SDS011;4969;52.304;4.968;2022-12-10T14:26:05;82.30;;;30.60;;
9860;SDS011;4969;52.304;4.968;2022-12-10T14:28:36;113.23;;;30.77;;
9860;SDS011;4969;52.304;4.968;2022-12-10T14:31:05;84.43;;;27.83;;
9860;SDS011;4969;52.304;4.968;2022-12-10T14:33:36;108.27;;;30.20;;
9860;SDS011;4969;52.304;4.968;2022-12-10T14:36:04;66.20;;;25.27;;
9860;SDS011;4969;52.304;4.968;2022-12-10T14:38:32;73.63;;;33.00;;
9860;SDS011;4969;52.304;4.968;2022-12-10T14:40:59;98.40;;;34.00;;
9860;SDS011;4969;52.304;4.968;2022-12-10T14:43:31;65.53;;;28.97;;
9860;SDS011;4969;52.304;4.968;2022-12-10T14:46:02;81.30;;;32.90;;
9860;SDS011;4969;52.304;4.968;2022-12-10T14:48:30;62.50;;;31.10;;
9860;SDS011;4969;52.304;4.968;2022-12-10T14:51:02;84.67;;;33.60;;
9860;SDS011;4969;52.304;4.968;2022-12-10T14:53:31;70.83;;;28.03;;
9860;SDS011;4969;52.304;4.968;2022-12-10T14:55:58;92.60;;;29.63;;
9860;SDS011;4969;52.304;4.968;2022-12-10T14:58:29;74.77;;;26.07;;
9860;SDS011;4969;52.304;4.968;2022-12-10T15:01:04;68.90;;;30.23;;
9860;SDS011;4969;52.304;4.968;2022-12-10T15:03:32;74.73;;;31.90;;
9860;SDS011;4969;52.304;4.968;2022-12-10T15:06:01;64.90;;;30.07;;
9860;SDS011;4969;52.304;4.968;2022-12-10T15:08:33;78.10;;;33.60;;
9860;SDS011;4969;52.304;4.968;2022-12-10T15:11:00;61.50;;;29.03;;
9860;SDS011;4969;52.304;4.968;2022-12-10T15:13:29;52.03;;;28.13;;
9860;SDS011;4969;52.304;4.968;2022-12-10T15:16:00;58.13;;;27.90;;
9860;SDS011;4969;52.304;4.968;2022-12-10T15:18:29;53.67;;;28.03;;
9860;SDS011;4969;52.304;4.968;2022-12-10T15:21:03;49.27;;;24.23;;
9860;SDS011;4969;52.304;4.968;2022-12-10T15:23:33;61.47;;;28.57;;
9860;SDS011;4969;52.304;4.968;2022-12-10T15:26:03;45.67;;;24.73;;
9860;SDS011;4969;52.304;4.968;2022-12-10T15:28:37;57.83;;;29.37;;